createdAt,value
2022-08-17T00:00:34.532Z,100046.40
2022-08-17T00:05:40.606Z,100044.60
2022-08-17T00:10:40.490Z,100044.20
2022-08-17T00:15:40.072Z,100040.60
2022-08-17T00:20:39.353Z,100041.20
2022-08-17T00:25:38.369Z,100042.20
2022-08-17T00:30:51.068Z,100039.60
2022-08-17T00:35:53.404Z,100034.60
2022-08-17T00:40:59.054Z,100028.80
2022-08-17T00:45:59.742Z,100035.80
2022-08-17T00:51:11.325Z,100037.60
2022-08-17T00:56:17.147Z,100039.40
2022-08-17T01:01:21.368Z,100038.20
2022-08-17T01:06:22.983Z,100037.60
2022-08-17T01:11:22.461Z,100033.60
2022-08-17T01:16:25.589Z,100040.40
2022-08-17T01:21:34.806Z,100044.00
2022-08-17T01:26:36.067Z,100045.80
2022-08-17T01:31:41.705Z,100046.40
2022-08-17T01:36:43.030Z,100041.20
2022-08-17T01:41:43.705Z,100046.00
2022-08-17T01:46:43.519Z,100038.20
2022-08-17T01:51:42.835Z,100041.80
2022-08-17T01:56:47.101Z,100043.60
2022-08-17T02:01:47.134Z,100056.60
2022-08-17T02:06:53.102Z,100050.40
2022-08-17T02:11:54.218Z,100055.60
2022-08-17T02:16:53.127Z,100053.00
2022-08-17T02:21:55.285Z,100056.20
2022-08-17T02:26:54.213Z,100061.20
2022-08-17T02:31:52.827Z,100061.60
2022-08-17T02:36:53.491Z,100052.80
2022-08-17T02:42:01.192Z,100050.20
2022-08-17T02:46:59.878Z,100043.40
2022-08-17T02:51:59.474Z,100046.40
2022-08-17T02:56:58.317Z,100045.40
2022-08-17T03:01:57.448Z,100051.20
2022-08-17T03:06:55.984Z,100054.00
2022-08-17T03:11:56.223Z,100058.60
2022-08-17T03:16:55.165Z,100056.00
2022-08-17T03:21:55.413Z,100061.60
2022-08-17T03:26:54.142Z,100064.60
2022-08-17T03:31:53.727Z,100072.80
2022-08-17T03:36:52.185Z,100078.00
2022-08-17T03:41:50.903Z,100079.00
2022-08-17T03:47:07.161Z,100086.60
2022-08-17T03:52:23.669Z,100096.00
2022-08-17T03:57:23.156Z,100096.20
2022-08-17T04:02:25.625Z,100100.40
2022-08-17T04:07:31.811Z,100095.20
2022-08-17T04:12:43.599Z,100096.20
2022-08-17T04:17:44.300Z,100100.00
2022-08-17T04:22:55.837Z,100096.60
2022-08-17T04:27:55.228Z,100101.80
2022-08-17T04:33:07.235Z,100105.80
2022-08-17T04:38:07.546Z,100103.80
2022-08-17T04:43:10.487Z,100100.60
2022-08-17T04:48:10.500Z,100100.00
2022-08-17T04:53:09.380Z,100104.20
2022-08-17T04:58:09.270Z,100110.00
2022-08-17T05:03:09.307Z,100110.20
2022-08-17T05:08:10.145Z,100114.40
2022-08-17T05:13:12.507Z,100121.60
2022-08-17T05:18:12.723Z,100125.00
2022-08-17T05:23:16.161Z,100120.80
2022-08-17T05:28:16.157Z,100122.20
2022-08-17T05:33:19.146Z,100131.20
2022-08-17T05:38:20.218Z,100128.40
2022-08-17T05:43:23.655Z,100132.00
2022-08-17T05:48:22.444Z,100135.80
2022-08-17T05:53:50.461Z,100135.20
2022-08-17T05:59:12.149Z,100132.00
2022-08-17T06:04:29.661Z,100128.40
2022-08-17T06:09:41.278Z,100127.80
2022-08-17T06:15:19.704Z,100132.20
2022-08-17T06:20:19.939Z,100134.00
2022-08-17T06:25:24.212Z,100139.00
2022-08-17T06:30:27.984Z,100144.60
2022-08-17T06:35:37.957Z,100149.60
2022-08-17T06:41:00.865Z,100157.60
2022-08-17T06:46:07.239Z,100159.40
2022-08-17T06:51:19.803Z,100155.20
2022-08-17T06:56:54.669Z,100154.20
2022-08-17T07:01:56.888Z,100149.80
2022-08-17T07:07:22.219Z,100144.40
2022-08-17T07:12:30.013Z,100142.20
2022-08-17T07:17:36.988Z,100146.40
2022-08-17T07:22:59.632Z,100148.00
2022-08-17T07:28:03.880Z,100148.40
2022-08-17T07:33:20.448Z,100148.40
2022-08-17T07:38:26.896Z,100150.60
2022-08-17T07:43:29.733Z,100158.00
2022-08-17T07:48:36.427Z,100157.20
2022-08-17T07:53:34.814Z,100151.20
2022-08-17T07:58:34.190Z,100154.60
2022-08-17T08:03:34.186Z,100152.80
2022-08-17T08:08:44.339Z,100150.00
2022-08-17T08:13:46.202Z,100148.20
2022-08-17T08:18:55.663Z,100155.00
2022-08-17T08:24:11.093Z,100155.80
2022-08-17T08:29:28.255Z,100159.60
2022-08-17T08:35:00.735Z,100160.00
2022-08-17T08:40:11.750Z,100172.40
2022-08-17T08:45:21.698Z,100173.20
2022-08-17T08:50:40.388Z,100168.20
2022-08-17T08:55:56.308Z,100160.80
2022-08-17T09:01:00.130Z,100158.60
2022-08-17T09:06:37.729Z,100152.60
2022-08-17T09:12:01.952Z,100151.40
2022-08-17T09:17:13.810Z,100155.40
2022-08-17T09:22:31.605Z,100157.80
2022-08-17T09:27:51.734Z,100160.00
2022-08-17T09:32:57.914Z,100163.40
2022-08-17T09:38:04.970Z,100168.80
2022-08-17T09:43:13.547Z,100172.60
2022-08-17T09:48:19.122Z,100171.60
2022-08-17T09:53:18.117Z,100169.60
2022-08-17T09:58:31.810Z,100166.60
2022-08-17T10:04:07.320Z,100165.40
2022-08-17T10:09:16.198Z,100172.00
2022-08-17T10:14:37.537Z,100167.80
2022-08-17T10:19:53.402Z,100155.80
2022-08-17T10:25:23.459Z,100159.00
2022-08-17T10:30:29.180Z,100161.40
2022-08-17T10:35:42.695Z,100168.40
2022-08-17T10:40:55.442Z,100174.20
2022-08-17T10:46:09.450Z,100178.20
2022-08-17T10:51:42.431Z,100181.00
2022-08-17T10:56:53.481Z,100179.80
2022-08-17T11:02:17.003Z,100189.40
2022-08-17T11:07:34.939Z,100179.60
2022-08-17T11:13:02.530Z,100170.80
2022-08-17T11:18:38.989Z,100156.40
2022-08-17T11:24:22.174Z,100163.60
2022-08-17T11:29:31.470Z,100169.20
2022-08-17T11:34:33.105Z,100179.40
2022-08-17T11:40:08.254Z,100177.00
2022-08-17T11:45:34.625Z,100181.00
2022-08-17T11:51:09.450Z,100172.20
2022-08-17T11:56:13.505Z,100182.00
2022-08-17T12:01:34.873Z,100182.00
2022-08-17T12:06:46.389Z,100179.60
2022-08-17T12:12:04.644Z,100177.00
2022-08-17T12:17:14.325Z,100178.60
2022-08-17T12:22:37.974Z,100179.80
2022-08-17T12:28:06.719Z,100179.60
2022-08-17T12:33:25.430Z,100175.00
2022-08-17T12:38:33.214Z,100175.00
2022-08-17T12:43:33.913Z,100178.00
2022-08-17T12:48:34.807Z,100181.00
2022-08-17T12:53:37.061Z,100176.60
2022-08-17T12:58:53.630Z,100178.60
2022-08-17T13:03:59.989Z,100177.20
2022-08-17T13:09:09.543Z,100177.80
2022-08-17T13:14:18.502Z,100175.60
2022-08-17T13:19:40.007Z,100175.80
2022-08-17T13:24:53.320Z,100184.20
2022-08-17T13:29:59.748Z,100181.00
2022-08-17T13:35:12.051Z,100166.00
2022-08-17T13:40:53.377Z,100156.20
2022-08-17T13:45:54.809Z,100155.60
2022-08-17T13:51:38.391Z,100162.80
2022-08-17T13:56:59.805Z,100169.20
2022-08-17T14:01:58.935Z,100179.40
2022-08-17T14:07:03.173Z,100187.80
2022-08-17T14:12:04.558Z,100185.60
2022-08-17T14:17:03.839Z,100180.80
2022-08-17T14:22:03.633Z,100178.80
2022-08-17T14:27:05.718Z,100175.20
2022-08-17T14:32:18.424Z,100177.00
2022-08-17T14:37:18.197Z,100171.60
2022-08-17T14:42:17.674Z,100180.20
2022-08-17T14:47:16.897Z,100171.20
2022-08-17T14:52:21.927Z,100179.00
2022-08-17T14:57:25.893Z,100169.40
2022-08-17T15:02:44.130Z,100168.40
2022-08-17T15:07:44.548Z,100165.00
2022-08-17T15:12:44.491Z,100167.00
2022-08-17T15:17:46.068Z,100161.80
2022-08-17T15:22:50.054Z,100169.80
2022-08-17T15:27:49.714Z,100165.00
2022-08-17T15:32:54.100Z,100160.20
2022-08-17T15:37:54.222Z,100164.40
2022-08-17T15:42:53.217Z,100174.40
2022-08-17T15:47:52.711Z,100177.00
2022-08-17T15:52:58.178Z,100173.60
2022-08-17T15:57:57.353Z,100172.00
2022-08-17T16:03:45.049Z,100172.80
2022-08-17T16:08:20.864Z,100180.80
2022-08-17T16:13:21.326Z,100179.00
2022-08-17T16:18:20.651Z,100186.00
2022-08-17T16:23:20.822Z,100194.40
2022-08-17T16:28:21.960Z,100201.00
2022-08-17T16:33:21.694Z,100200.80
2022-08-17T16:38:21.192Z,100194.20
2022-08-17T16:43:20.645Z,100194.20
2022-08-17T16:48:20.173Z,100191.80
2022-08-17T16:53:21.986Z,100201.80
2022-08-17T16:58:20.431Z,100206.60
2022-08-17T17:03:24.350Z,100214.80
2022-08-17T17:08:31.646Z,100218.60
2022-08-17T17:13:38.996Z,100217.40
2022-08-17T17:18:43.754Z,100225.80
2022-08-17T17:23:56.034Z,100227.40
2022-08-17T17:29:11.673Z,100223.40
2022-08-17T17:34:17.358Z,100229.40
2022-08-17T17:39:21.549Z,100238.40
2022-08-17T17:44:27.519Z,100247.20
2022-08-17T17:49:27.526Z,100257.60
2022-08-17T17:54:54.340Z,100263.40
2022-08-17T18:00:13.443Z,100267.80
2022-08-17T18:05:22.683Z,100270.20
2022-08-17T18:10:34.009Z,100272.80
2022-08-17T18:15:41.451Z,100273.20
2022-08-17T18:20:40.943Z,100278.00
2022-08-17T18:25:55.678Z,100287.40
2022-08-17T18:31:14.809Z,100289.80
2022-08-17T18:36:14.877Z,100282.00
2022-08-17T18:41:30.520Z,100279.40
2022-08-17T18:46:37.651Z,100272.40
2022-08-17T18:51:41.864Z,100277.00
2022-08-17T18:56:44.884Z,100281.60
2022-08-17T19:02:16.063Z,100285.60
2022-08-17T19:07:33.676Z,100293.00
2022-08-17T19:12:40.474Z,100294.60
2022-08-17T19:17:49.282Z,100297.00
2022-08-17T19:23:24.243Z,100299.00
2022-08-17T19:28:29.846Z,100303.00
2022-08-17T19:33:31.437Z,100304.80
2022-08-17T19:38:46.564Z,100308.00
2022-08-17T19:44:07.227Z,100308.00
2022-08-17T19:49:18.167Z,100314.60
2022-08-17T19:54:27.392Z,100309.80
2022-08-17T19:59:49.601Z,100316.40
2022-08-17T20:04:53.920Z,100324.00
2022-08-17T20:10:04.271Z,100322.60
2022-08-17T20:15:09.993Z,100322.40
2022-08-17T20:20:26.879Z,100325.40
2022-08-17T20:25:39.616Z,100323.20
2022-08-17T20:30:43.879Z,100317.60
2022-08-17T20:36:05.063Z,100320.80
2022-08-17T20:41:18.212Z,100334.20
2022-08-17T20:46:51.633Z,100340.80
2022-08-17T20:52:07.825Z,100340.20
2022-08-17T20:57:13.979Z,100336.20
2022-08-17T21:02:24.726Z,100337.00
2022-08-17T21:07:46.108Z,100343.20
2022-08-17T21:12:49.370Z,100358.40
2022-08-17T21:18:11.092Z,100369.00
2022-08-17T21:23:28.246Z,100367.20
2022-08-17T21:28:59.881Z,100362.20
2022-08-17T21:34:29.715Z,100361.20
2022-08-17T21:39:42.307Z,100374.40
2022-08-17T21:44:48.229Z,100377.40
2022-08-17T21:49:47.390Z,100367.80
2022-08-17T21:54:53.266Z,100374.00
2022-08-17T21:59:58.108Z,100369.80
2022-08-17T22:05:06.905Z,100363.80
2022-08-17T22:10:09.200Z,100362.40
2022-08-17T22:15:17.741Z,100357.40
2022-08-17T22:20:21.884Z,100352.80
2022-08-17T22:25:29.904Z,100352.20
2022-08-17T22:30:38.491Z,100344.00
2022-08-17T22:35:50.244Z,100342.80
2022-08-17T22:40:54.928Z,100339.80
2022-08-17T22:45:58.324Z,100335.60
2022-08-17T22:51:16.014Z,100334.00
2022-08-17T22:56:41.266Z,100326.20
2022-08-17T23:01:40.768Z,100320.20
2022-08-17T23:06:43.009Z,100325.00
2022-08-17T23:11:49.943Z,100317.80
2022-08-17T23:16:50.389Z,100309.80
2022-08-17T23:21:50.610Z,100304.40
2022-08-17T23:26:49.531Z,100296.20
2022-08-17T23:31:49.493Z,100289.80
2022-08-17T23:36:53.380Z,100297.00
2022-08-17T23:41:54.123Z,100294.20
2022-08-17T23:46:53.802Z,100295.40
2022-08-17T23:51:54.968Z,100291.40
2022-08-17T23:56:54.459Z,100288.80
